DLH3MA EDDH-EDDF
Flight info
| Callsign | DLH3MA |
|---|---|
| Flight time | N/A |
| Altitude | 30000 |
| Route | AMLUH2G/33 AMLUH M852 DENIX DCT RIMET/N0413F310 T157 KOKEB/N0358F230 T157 KERAX KERAX5A |
| Aircraft | A21N/M-SDE2E3FGIJ1LORWXYZ/HB1 |
Departure
| Time | 2026-05-06 18:17 |
|---|---|
| Airport | Hamburg Helmut Schmidt Airport (EDDH) |
Arrival
| Time | N/A |
|---|---|
| Airport | Frankfurt Main Airport (EDDF) |
| Time | Latitude | Longitude | Altitude | Speed | Heading |
|---|---|---|---|---|---|
| 2026-05-06 18:08 | 53.63095 | 10.00260 | 50 ft | 0 kts | 176° |
| 2026-05-06 18:11 | 53.63085 | 10.00260 | 51 ft | 7 kts | 184° |
| 2026-05-06 18:11 | 53.63032 | 10.00225 | 52 ft | 9 kts | 211° |
| 2026-05-06 18:12 | 53.62974 | 10.00162 | 51 ft | 11 kts | 211° |
| 2026-05-06 18:12 | 53.62905 | 10.00090 | 48 ft | 13 kts | 212° |
| 2026-05-06 18:12 | 53.62850 | 9.99986 | 51 ft | 5 kts | 243° |
| 2026-05-06 18:12 | 53.62847 | 9.99979 | 51 ft | 1 kts | 245° |
| 2026-05-06 18:13 | 53.62845 | 9.99968 | 51 ft | 2 kts | 246° |
| 2026-05-06 18:13 | 53.62841 | 9.99955 | 51 ft | 0 kts | 246° |
| 2026-05-06 18:13 | 53.62841 | 9.99952 | 51 ft | 3 kts | 246° |
| 2026-05-06 18:14 | 53.62810 | 9.99821 | 51 ft | 9 kts | 265° |
| 2026-05-06 18:14 | 53.62834 | 9.99772 | 52 ft | 0 kts | 333° |
| 2026-05-06 18:16 | 53.62845 | 9.99763 | 52 ft | 14 kts | 333° |
| 2026-05-06 18:16 | 53.63184 | 9.99467 | 54 ft | 95 kts | 333° |
| 2026-05-06 18:16 | 53.64001 | 9.98763 | 56 ft | 164 kts | 333° |
| 2026-05-06 18:16 | 53.65045 | 9.97872 | 649 ft | 167 kts | 331° |
| 2026-05-06 18:17 | 53.66074 | 9.96943 | 1368 ft | 171 kts | 331° |
| 2026-05-06 18:17 | 53.67176 | 9.96010 | 1984 ft | 183 kts | 332° |
| 2026-05-06 18:17 | 53.68365 | 9.95036 | 2549 ft | 197 kts | 336° |
| 2026-05-06 18:17 | 53.69763 | 9.94585 | 3139 ft | 215 kts | 358° |
| 2026-05-06 18:18 | 53.71306 | 9.94606 | 3818 ft | 227 kts | 359° |
| 2026-05-06 18:18 | 53.72899 | 9.94900 | 4660 ft | 233 kts | 19° |
| 2026-05-06 18:18 | 53.74230 | 9.96422 | 5495 ft | 238 kts | 50° |
| 2026-05-06 18:18 | 53.74945 | 9.98937 | 6320 ft | 242 kts | 80° |
| 2026-05-06 18:19 | 53.74833 | 10.01768 | 7133 ft | 244 kts | 108° |
| 2026-05-06 18:19 | 53.74143 | 10.04396 | 7898 ft | 251 kts | 121° |
| 2026-05-06 18:19 | 53.73206 | 10.07014 | 8379 ft | 270 kts | 122° |
| 2026-05-06 18:19 | 53.72204 | 10.09817 | 8937 ft | 284 kts | 121° |
| 2026-05-06 18:20 | 53.71191 | 10.12724 | 9579 ft | 290 kts | 121° |
| 2026-05-06 18:20 | 53.70189 | 10.15650 | 9899 ft | 292 kts | 120° |
| 2026-05-06 18:20 | 53.68975 | 10.18625 | 10006 ft | 320 kts | 133° |
| 2026-05-06 18:20 | 53.67182 | 10.21007 | 10034 ft | 347 kts | 153° |
| 2026-05-06 18:21 | 53.64797 | 10.22438 | 10121 ft | 372 kts | 166° |
| 2026-05-06 18:21 | 53.62254 | 10.23522 | 10707 ft | 380 kts | 167° |
| 2026-05-06 18:21 | 53.59714 | 10.24615 | 11440 ft | 384 kts | 166° |
| 2026-05-06 18:21 | 53.57119 | 10.25768 | 12151 ft | 387 kts | 166° |
| 2026-05-06 18:22 | 53.54506 | 10.26951 | 12821 ft | 391 kts | 165° |
| 2026-05-06 18:22 | 53.51867 | 10.28152 | 13452 ft | 394 kts | 165° |
| 2026-05-06 18:22 | 53.49207 | 10.29365 | 14072 ft | 398 kts | 165° |
| 2026-05-06 18:22 | 53.46520 | 10.30591 | 14670 ft | 402 kts | 165° |
| 2026-05-06 18:23 | 53.43815 | 10.31824 | 15276 ft | 405 kts | 165° |
| 2026-05-06 18:23 | 53.41080 | 10.33065 | 15885 ft | 409 kts | 166° |
| 2026-05-06 18:23 | 53.38315 | 10.34307 | 16504 ft | 412 kts | 166° |
| 2026-05-06 18:23 | 53.35532 | 10.35556 | 17116 ft | 416 kts | 166° |
| 2026-05-06 18:24 | 53.32719 | 10.36818 | 17713 ft | 419 kts | 166° |
| 2026-05-06 18:24 | 53.29887 | 10.38087 | 18289 ft | 423 kts | 166° |
| 2026-05-06 18:24 | 53.27033 | 10.39365 | 18834 ft | 426 kts | 166° |
| 2026-05-06 18:24 | 53.24158 | 10.40655 | 19363 ft | 430 kts | 166° |
| 2026-05-06 18:25 | 53.21251 | 10.41955 | 19894 ft | 433 kts | 166° |
| 2026-05-06 18:25 | 53.18359 | 10.43247 | 20382 ft | 436 kts | 166° |
| 2026-05-06 18:25 | 53.15415 | 10.44542 | 20874 ft | 439 kts | 167° |
| 2026-05-06 18:25 | 53.12392 | 10.45379 | 21335 ft | 442 kts | 176° |
| 2026-05-06 18:26 | 53.09311 | 10.45298 | 21786 ft | 444 kts | 185° |
| 2026-05-06 18:26 | 53.06222 | 10.44859 | 22237 ft | 447 kts | 186° |
| 2026-05-06 18:26 | 53.03109 | 10.44382 | 22683 ft | 450 kts | 186° |
| 2026-05-06 18:26 | 52.99983 | 10.43920 | 23119 ft | 453 kts | 185° |
| 2026-05-06 18:27 | 52.96829 | 10.43477 | 23552 ft | 456 kts | 185° |
| 2026-05-06 18:27 | 52.93647 | 10.43040 | 23919 ft | 459 kts | 185° |
| 2026-05-06 18:27 | 52.90461 | 10.42607 | 24020 ft | 460 kts | 185° |
| 2026-05-06 18:27 | 52.87267 | 10.42173 | 24027 ft | 460 kts | 185° |
| 2026-05-06 18:28 | 52.84074 | 10.41738 | 24016 ft | 460 kts | 185° |
| 2026-05-06 18:28 | 52.80868 | 10.41302 | 24008 ft | 460 kts | 185° |
| 2026-05-06 18:28 | 52.77678 | 10.40870 | 24005 ft | 460 kts | 185° |
| 2026-05-06 18:28 | 52.74513 | 10.40445 | 24269 ft | 463 kts | 185° |
| 2026-05-06 18:29 | 52.71297 | 10.40013 | 24698 ft | 465 kts | 185° |
| 2026-05-06 18:29 | 52.68060 | 10.39578 | 25237 ft | 464 kts | 185° |
| 2026-05-06 18:29 | 52.64846 | 10.39143 | 25780 ft | 462 kts | 185° |
| 2026-05-06 18:29 | 52.61642 | 10.38709 | 26306 ft | 461 kts | 185° |
| 2026-05-06 18:30 | 52.58431 | 10.38275 | 26817 ft | 460 kts | 185° |
| 2026-05-06 18:30 | 52.55247 | 10.37848 | 27310 ft | 459 kts | 185° |
| 2026-05-06 18:30 | 52.52102 | 10.37426 | 27783 ft | 458 kts | 185° |
| 2026-05-06 18:30 | 52.48923 | 10.37001 | 28265 ft | 457 kts | 185° |
| 2026-05-06 18:31 | 52.45753 | 10.36576 | 28722 ft | 457 kts | 185° |
| 2026-05-06 18:31 | 52.42588 | 10.36154 | 29166 ft | 456 kts | 185° |
| 2026-05-06 18:31 | 52.39433 | 10.35733 | 29589 ft | 455 kts | 185° |
| 2026-05-06 18:31 | 52.36270 | 10.35311 | 29931 ft | 455 kts | 185° |
| 2026-05-06 18:32 | 52.29934 | 10.34473 | 30023 ft | 457 kts | 185° |
| 2026-05-06 18:32 | 52.23594 | 10.33636 | 30007 ft | 457 kts | 185° |
| 2026-05-06 18:33 | 52.18324 | 10.32940 | 30007 ft | 457 kts | 185° |
| 2026-05-06 18:33 | 52.11989 | 10.32103 | 30007 ft | 457 kts | 185° |
| 2026-05-06 18:34 | 52.04648 | 10.31130 | 30008 ft | 454 kts | 185° |
| 2026-05-06 18:34 | 51.99401 | 10.30445 | 30007 ft | 454 kts | 185° |
| 2026-05-06 18:35 | 51.93096 | 10.29635 | 30010 ft | 455 kts | 185° |
| 2026-05-06 18:35 | 51.86775 | 10.28815 | 30017 ft | 455 kts | 185° |
| 2026-05-06 18:36 | 51.80481 | 10.27992 | 29602 ft | 454 kts | 185° |
| 2026-05-06 18:36 | 51.77318 | 10.27583 | 29284 ft | 457 kts | 185° |
| 2026-05-06 18:36 | 51.74150 | 10.27171 | 29016 ft | 457 kts | 185° |
| 2026-05-06 18:37 | 51.70979 | 10.26763 | 28759 ft | 457 kts | 185° |
| 2026-05-06 18:37 | 51.67808 | 10.26356 | 28508 ft | 457 kts | 185° |
| 2026-05-06 18:37 | 51.64638 | 10.25947 | 28259 ft | 457 kts | 185° |
| 2026-05-06 18:37 | 51.61458 | 10.25536 | 28010 ft | 458 kts | 185° |
| 2026-05-06 18:38 | 51.58274 | 10.25128 | 27759 ft | 458 kts | 185° |
| 2026-05-06 18:38 | 51.55098 | 10.24720 | 27510 ft | 459 kts | 185° |
| 2026-05-06 18:38 | 51.51912 | 10.24310 | 27258 ft | 459 kts | 185° |
| 2026-05-06 18:38 | 51.48724 | 10.23899 | 27005 ft | 460 kts | 185° |
| 2026-05-06 18:39 | 51.45534 | 10.23491 | 26757 ft | 461 kts | 185° |
| 2026-05-06 18:39 | 51.42325 | 10.23083 | 26507 ft | 462 kts | 185° |
| 2026-05-06 18:39 | 51.39123 | 10.22676 | 26257 ft | 462 kts | 185° |
| 2026-05-06 18:40 | 51.32787 | 10.21273 | 25034 ft | 461 kts | 198° |
| 2026-05-06 18:40 | 51.29804 | 10.19339 | 24424 ft | 463 kts | 205° |
| 2026-05-06 18:40 | 51.26905 | 10.17124 | 24143 ft | 460 kts | 206° |
| 2026-05-06 18:40 | 51.24023 | 10.14904 | 24035 ft | 460 kts | 206° |
| 2026-05-06 18:41 | 51.21141 | 10.12706 | 23999 ft | 459 kts | 206° |
| 2026-05-06 18:41 | 51.18249 | 10.10521 | 23995 ft | 459 kts | 206° |
| 2026-05-06 18:41 | 51.15372 | 10.08360 | 23999 ft | 459 kts | 206° |
| 2026-05-06 18:41 | 51.12511 | 10.06212 | 23999 ft | 460 kts | 206° |
| 2026-05-06 18:42 | 51.09578 | 10.04014 | 24000 ft | 460 kts | 206° |
| 2026-05-06 18:42 | 51.06718 | 10.01873 | 24002 ft | 460 kts | 206° |
| 2026-05-06 18:42 | 51.03785 | 9.99680 | 24002 ft | 460 kts | 206° |
| 2026-05-06 18:42 | 51.00925 | 9.97548 | 23939 ft | 459 kts | 206° |
| 2026-05-06 18:43 | 50.98042 | 9.95399 | 23724 ft | 458 kts | 206° |
| 2026-05-06 18:43 | 50.95160 | 9.93255 | 23343 ft | 453 kts | 206° |
| 2026-05-06 18:43 | 50.92349 | 9.91166 | 22618 ft | 441 kts | 206° |
| 2026-05-06 18:43 | 50.89601 | 9.89125 | 21787 ft | 431 kts | 206° |
| 2026-05-06 18:44 | 50.86906 | 9.87127 | 20958 ft | 424 kts | 205° |
| 2026-05-06 18:44 | 50.84201 | 9.85124 | 20175 ft | 431 kts | 206° |
| 2026-05-06 18:44 | 50.81520 | 9.83141 | 19372 ft | 421 kts | 206° |
| 2026-05-06 18:44 | 50.79095 | 9.81349 | 18675 ft | 434 kts | 206° |
| 2026-05-06 18:45 | 50.77272 | 9.80001 | 18246 ft | 425 kts | 206° |
| 2026-05-06 18:45 | 50.74632 | 9.78058 | 17537 ft | 412 kts | 205° |
| 2026-05-06 18:45 | 50.72058 | 9.76167 | 16866 ft | 405 kts | 205° |
| 2026-05-06 18:45 | 50.69592 | 9.74356 | 16237 ft | 398 kts | 206° |
| 2026-05-06 18:46 | 50.67092 | 9.72514 | 15591 ft | 395 kts | 205° |
| 2026-05-06 18:46 | 50.64608 | 9.70697 | 14942 ft | 392 kts | 205° |
| 2026-05-06 18:46 | 50.62176 | 9.68918 | 14326 ft | 388 kts | 205° |
| 2026-05-06 18:46 | 50.59733 | 9.67130 | 13681 ft | 386 kts | 205° |
| 2026-05-06 18:47 | 50.57301 | 9.65348 | 13024 ft | 388 kts | 205° |
| 2026-05-06 18:47 | 50.54852 | 9.63555 | 12377 ft | 387 kts | 205° |
| 2026-05-06 18:47 | 50.52419 | 9.61775 | 11710 ft | 384 kts | 205° |
| 2026-05-06 18:47 | 50.50032 | 9.60030 | 11225 ft | 371 kts | 205° |
| 2026-05-06 18:48 | 50.47750 | 9.58367 | 11029 ft | 351 kts | 205° |
| 2026-05-06 18:48 | 50.45611 | 9.56812 | 10977 ft | 328 kts | 205° |
| 2026-05-06 18:48 | 50.43642 | 9.55275 | 10972 ft | 306 kts | 214° |
| 2026-05-06 18:48 | 50.42094 | 9.53144 | 10979 ft | 291 kts | 226° |
| 2026-05-06 18:49 | 50.40717 | 9.50816 | 10991 ft | 290 kts | 228° |
| 2026-05-06 18:49 | 50.39365 | 9.48465 | 10998 ft | 291 kts | 229° |
| 2026-05-06 18:49 | 50.38016 | 9.46110 | 10971 ft | 290 kts | 229° |
| 2026-05-06 18:49 | 50.36673 | 9.43766 | 10585 ft | 288 kts | 229° |
| 2026-05-06 18:50 | 50.35341 | 9.41442 | 10133 ft | 286 kts | 229° |
| 2026-05-06 18:50 | 50.34008 | 9.39120 | 9680 ft | 284 kts | 229° |
| 2026-05-06 18:50 | 50.32690 | 9.36824 | 9237 ft | 283 kts | 229° |
| 2026-05-06 18:50 | 50.31381 | 9.34544 | 9021 ft | 282 kts | 229° |
| 2026-05-06 18:51 | 50.30072 | 9.32268 | 8622 ft | 281 kts | 229° |
| 2026-05-06 18:51 | 50.28756 | 9.29980 | 8053 ft | 284 kts | 229° |
| 2026-05-06 18:51 | 50.27429 | 9.27670 | 7470 ft | 287 kts | 229° |
| 2026-05-06 18:51 | 50.26099 | 9.25356 | 7103 ft | 282 kts | 229° |
| 2026-05-06 18:52 | 50.24903 | 9.23278 | 6862 ft | 273 kts | 229° |
| 2026-05-06 18:52 | 50.23638 | 9.21086 | 6459 ft | 270 kts | 229° |
| 2026-05-06 18:52 | 50.22384 | 9.18914 | 6034 ft | 269 kts | 229° |
| 2026-05-06 18:52 | 50.21133 | 9.16749 | 5605 ft | 267 kts | 229° |
| 2026-05-06 18:53 | 50.19893 | 9.14601 | 5187 ft | 265 kts | 229° |
| 2026-05-06 18:53 | 50.18662 | 9.12471 | 4774 ft | 264 kts | 229° |
| 2026-05-06 18:53 | 50.17436 | 9.10353 | 4364 ft | 262 kts | 229° |
| 2026-05-06 18:53 | 50.16225 | 9.08226 | 4179 ft | 262 kts | 232° |
| 2026-05-06 18:54 | 50.15259 | 9.05822 | 4241 ft | 262 kts | 243° |
| 2026-05-06 18:54 | 50.14567 | 9.03262 | 4112 ft | 255 kts | 253° |
| 2026-05-06 18:54 | 50.13991 | 9.00661 | 4030 ft | 254 kts | 250° |
| 2026-05-06 18:54 | 50.13383 | 8.98073 | 3989 ft | 254 kts | 250° |
| 2026-05-06 18:55 | 50.12768 | 8.95485 | 3985 ft | 253 kts | 250° |
| 2026-05-06 18:55 | 50.12157 | 8.92913 | 3983 ft | 254 kts | 250° |
| 2026-05-06 18:55 | 50.11552 | 8.90364 | 3984 ft | 254 kts | 250° |
| 2026-05-06 18:55 | 50.10939 | 8.87785 | 3985 ft | 254 kts | 250° |
| 2026-05-06 18:56 | 50.10327 | 8.85211 | 3917 ft | 254 kts | 250° |
| 2026-05-06 18:56 | 50.09712 | 8.82625 | 3655 ft | 253 kts | 250° |
| 2026-05-06 18:56 | 50.09099 | 8.80045 | 3328 ft | 253 kts | 250° |
| 2026-05-06 18:56 | 50.08490 | 8.77485 | 2995 ft | 253 kts | 251° |
| 2026-05-06 18:57 | 50.07879 | 8.74919 | 2639 ft | 252 kts | 251° |
| 2026-05-06 18:57 | 50.07267 | 8.72347 | 2292 ft | 253 kts | 252° |
| 2026-05-06 18:57 | 50.06668 | 8.69830 | 1942 ft | 249 kts | 251° |
| 2026-05-06 18:57 | 50.06066 | 8.67301 | 1606 ft | 249 kts | 251° |
| 2026-05-06 18:58 | 50.05467 | 8.64788 | 1226 ft | 242 kts | 251° |
| 2026-05-06 18:58 | 50.04854 | 8.62242 | 1013 ft | 274 kts | 250° |
| 2026-05-06 18:58 | 50.04181 | 8.59304 | 653 ft | 335 kts | 252° |
| 2026-05-06 18:58 | 50.03277 | 8.55867 | 1700 ft | 338 kts | 248° |
| 2026-05-06 18:59 | 50.02477 | 8.52607 | 2159 ft | 308 kts | 252° |